Herzlich willkommen!

Am freundlichen Bodensee-Flugplatz zwischen Schwarzwald, Rhein und Alpen.

Aktuelles

28.03.2020
Flugplatz Konstanz
Bis auf weiteres PPR
— Flugleitung EDTZ
01.04.2020
Hinweis der Geschäftsführung
Der Verkehrslandeplatz Konstanz ist lt. Entscheidung des Regierungspräsidiums Stuttgart nach § 45 Abs. 3 i.V. mit § 53 Abs. 2 der Luftverkehrs-Zulassungs-Ordnung (LuftVZO) vom 2.4.20 bis 19.4.2020 von der Betriebspflicht teilweise befreit. Der Betrieb erfolgt in dieser Zeit auf PPR-Basis. Gez. Thilo Schmidt-von Hülst (Geschäftsführer)
— Flughafen-Gesellschaft Konstanz GmbH

Live am Platz

Die Bilder unserer Webcams werden alle 5 Minuten aktualisiert.

Sonnenaufgang:

04:53 UTC / 06:53 Lokal

Sonnenuntergang:

17:59 UTC / 19:59 Lokal

METAR (03.04.2020 22:50 UTC):

EDNY 032150Z AUTO 04004KT 010V070 9999 // BKN076/// 07/M00 Q1020
VFR

TAF (03.04.2020 18:00 UTC):

TAF EDNY 031700Z 0318/0418 VRB03KT CAVOK BECMG 0320/0322 04005KT TEMPO 0409/0414 23005KT

Alle Angaben unverbindlich und ohne Gewähr. Zeiten genähert.

Für den Verkehrslandeplatz Konstanz werden keine offiziellen Wetterinformationen ausgegeben. Daher werden zur Orientierung Daten des nahegelegenen Flughafens Friedrichshafen dargestellt.

Flugwetterdaten zur Verfügung gestellt von wippich.aero.